createdAt,value
2023-02-11T00:00:00.984Z,76.06
2023-02-11T00:01:00.952Z,76.06
2023-02-11T00:02:01.068Z,76.16
2023-02-11T00:03:01.913Z,76.06
2023-02-11T00:03:59.939Z,76.06
2023-02-11T00:04:59.920Z,76.06
2023-02-11T00:06:00.939Z,76.06
2023-02-11T00:07:00.860Z,76.06
2023-02-11T00:08:01.847Z,75.95
2023-02-11T00:09:00.871Z,75.95
2023-02-11T00:09:59.882Z,75.92
2023-02-11T00:10:59.871Z,75.92
2023-02-11T00:12:00.807Z,75.92
2023-02-11T00:13:00.847Z,75.92
2023-02-11T00:14:01.723Z,75.92
2023-02-11T00:15:00.779Z,76.06
2023-02-11T00:16:00.751Z,76.06
2023-02-11T00:17:00.877Z,76.02
2023-02-11T00:18:00.738Z,76.06
2023-02-11T00:19:01.637Z,76.16
2023-02-11T00:20:00.707Z,76.12
2023-02-11T00:21:00.730Z,76.12
2023-02-11T00:22:00.687Z,76.12
2023-02-11T00:23:00.700Z,76.12
2023-02-11T00:24:01.601Z,76.12
2023-02-11T00:25:00.628Z,76.12
2023-02-11T00:25:59.707Z,76.12
2023-02-11T00:26:59.706Z,76.23
2023-02-11T00:27:59.658Z,76.23
2023-02-11T00:29:01.528Z,76.33
2023-02-11T00:30:00.574Z,76.33
2023-02-11T00:30:59.649Z,76.33
2023-02-11T00:31:59.614Z,76.43
2023-02-11T00:32:59.707Z,76.43
2023-02-11T00:34:00.559Z,76.43
2023-02-11T00:35:00.515Z,76.54
2023-02-11T00:35:59.542Z,76.54
2023-02-11T00:36:59.548Z,76.54
2023-02-11T00:37:59.511Z,76.54
2023-02-11T00:38:59.516Z,76.43
2023-02-11T00:40:00.510Z,76.54
2023-02-11T00:41:00.450Z,76.54
2023-02-11T00:42:00.513Z,76.64
2023-02-11T00:42:59.452Z,76.64
2023-02-11T00:43:59.441Z,76.64
2023-02-11T00:44:59.471Z,76.64
2023-02-11T00:46:00.355Z,76.75
2023-02-11T00:46:59.464Z,76.75
2023-02-11T00:47:59.419Z,76.75
2023-02-11T00:48:59.370Z,76.64
2023-02-11T00:49:59.367Z,76.64
2023-02-11T00:51:00.266Z,76.64
2023-02-11T00:51:59.348Z,76.64
2023-02-11T00:52:59.327Z,76.75
2023-02-11T00:54:00.282Z,76.75
2023-02-11T00:54:59.305Z,76.75
2023-02-11T00:56:00.234Z,76.75
2023-02-11T00:57:00.204Z,76.75
2023-02-11T00:57:59.285Z,76.71
2023-02-11T00:58:59.258Z,76.71
2023-02-11T00:59:59.306Z,76.71
2023-02-11T01:00:59.302Z,76.81
2023-02-11T01:01:59.208Z,76.81
2023-02-11T01:03:00.125Z,76.81
2023-02-11T01:03:59.292Z,76.71
2023-02-11T01:04:59.175Z,76.71
2023-02-11T01:05:59.153Z,76.81
2023-02-11T01:06:59.144Z,76.81
2023-02-11T01:08:00.091Z,76.81
2023-02-11T01:08:59.108Z,76.81
2023-02-11T01:09:59.104Z,76.92
2023-02-11T01:10:59.121Z,77.23
2023-02-11T01:11:59.077Z,77.75
2023-02-11T01:12:59.094Z,78.27
2023-02-11T01:14:00.007Z,79.10
2023-02-11T01:14:59.063Z,79.44
2023-02-11T01:15:59.096Z,79.97
2023-02-11T01:16:59.019Z,79.76
2023-02-11T01:17:59.017Z,79.44
2023-02-11T01:18:59.941Z,78.92
2023-02-11T01:19:58.972Z,78.82
2023-02-11T01:20:58.957Z,78.61
2023-02-11T01:21:58.948Z,78.61
2023-02-11T01:22:58.963Z,78.41
2023-02-11T01:23:58.960Z,78.30
2023-02-11T01:24:59.873Z,78.09
2023-02-11T01:25:58.915Z,77.99
2023-02-11T01:26:58.939Z,77.89
2023-02-11T01:27:59.910Z,77.89
2023-02-11T01:28:59.010Z,77.78
2023-02-11T01:29:58.891Z,77.64
2023-02-11T01:30:59.840Z,77.44
2023-02-11T01:31:58.872Z,77.44
2023-02-11T01:32:58.828Z,77.44
2023-02-11T01:33:58.785Z,77.33
2023-02-11T01:34:58.885Z,77.44
2023-02-11T01:35:58.804Z,77.44
2023-02-11T01:36:59.802Z,77.44
2023-02-11T01:37:58.739Z,77.54
2023-02-11T01:38:58.750Z,77.54
2023-02-11T01:39:58.761Z,77.54
2023-02-11T01:40:59.682Z,77.54
2023-02-11T01:42:00.579Z,77.54
2023-02-11T01:42:59.640Z,77.64
2023-02-11T01:43:58.706Z,77.64
2023-02-11T01:44:58.691Z,77.64
2023-02-11T01:45:58.979Z,77.75
2023-02-11T01:46:58.688Z,77.75
2023-02-11T01:47:59.560Z,77.75
2023-02-11T01:48:58.680Z,77.75
2023-02-11T01:49:58.596Z,77.75
2023-02-11T01:50:58.597Z,77.75
2023-02-11T01:51:58.658Z,77.64
2023-02-11T01:52:59.520Z,77.64
2023-02-11T01:53:58.656Z,77.64
2023-02-11T01:54:58.556Z,77.75
2023-02-11T01:55:58.525Z,77.75
2023-02-11T01:56:58.515Z,77.85
2023-02-11T01:57:58.492Z,77.95
2023-02-11T01:58:59.522Z,78.06
2023-02-11T01:59:58.491Z,78.06
2023-02-11T02:00:58.469Z,77.95
2023-02-11T02:01:58.554Z,78.03
2023-02-11T02:02:58.459Z,78.03
2023-02-11T02:03:58.641Z,78.03
2023-02-11T02:04:59.345Z,78.03
2023-02-11T02:05:58.443Z,78.03
2023-02-11T02:06:58.418Z,78.03
2023-02-11T02:07:58.403Z,78.13
2023-02-11T02:08:58.355Z,78.13
2023-02-11T02:09:59.324Z,78.13
2023-02-11T02:10:59.305Z,78.13
2023-02-11T02:11:58.343Z,78.13
2023-02-11T02:12:58.308Z,78.23
2023-02-11T02:13:58.277Z,78.13
2023-02-11T02:14:58.288Z,78.23
2023-02-11T02:15:58.314Z,78.23
2023-02-11T02:16:59.273Z,78.23
2023-02-11T02:17:58.413Z,78.23
2023-02-11T02:18:58.225Z,78.09
2023-02-11T02:19:58.315Z,78.09
2023-02-11T02:20:58.516Z,78.09
2023-02-11T02:21:58.184Z,78.20
2023-02-11T02:22:59.122Z,78.20
2023-02-11T02:23:58.193Z,78.20
2023-02-11T02:24:58.158Z,78.30
2023-02-11T02:25:58.136Z,78.30
2023-02-11T02:26:58.138Z,78.41
2023-02-11T02:27:59.111Z,78.41
2023-02-11T02:28:59.026Z,78.41
2023-02-11T02:29:58.085Z,78.41
2023-02-11T02:30:58.259Z,78.51
2023-02-11T02:31:58.045Z,78.51
2023-02-11T02:32:58.056Z,78.41
2023-02-11T02:33:58.092Z,78.41
2023-02-11T02:34:58.984Z,78.51
2023-02-11T02:35:58.011Z,78.51
2023-02-11T02:36:58.019Z,78.61
2023-02-11T02:37:57.986Z,78.72
2023-02-11T02:38:58.013Z,78.72
2023-02-11T02:39:57.992Z,78.72
2023-02-11T02:40:58.882Z,78.72
2023-02-11T02:41:58.017Z,78.72
2023-02-11T02:42:57.922Z,78.82
2023-02-11T02:43:57.925Z,78.82
2023-02-11T02:44:57.949Z,78.82
2023-02-11T02:45:58.862Z,78.92
2023-02-11T02:46:58.014Z,78.82
2023-02-11T02:47:57.867Z,78.78
2023-02-11T02:48:57.878Z,78.89
2023-02-11T02:49:57.923Z,78.89
2023-02-11T02:50:58.810Z,78.89
2023-02-11T02:51:57.822Z,78.99
2023-02-11T02:52:57.807Z,78.99
2023-02-11T02:53:57.780Z,78.99
2023-02-11T02:54:57.759Z,79.10
2023-02-11T02:55:57.754Z,79.10
2023-02-11T02:56:58.684Z,79.10
2023-02-11T02:57:57.759Z,79.20
2023-02-11T02:58:57.718Z,79.30
2023-02-11T02:59:57.780Z,79.30
2023-02-11T03:00:57.807Z,79.30
2023-02-11T03:01:58.625Z,79.41
2023-02-11T03:02:57.649Z,79.41
2023-02-11T03:03:57.780Z,79.51
2023-02-11T03:04:57.687Z,79.51
2023-02-11T03:05:57.635Z,79.61
2023-02-11T03:06:57.630Z,79.71
2023-02-11T03:07:58.623Z,79.71
2023-02-11T03:08:57.633Z,79.71
2023-02-11T03:09:57.603Z,79.71
2023-02-11T03:10:57.581Z,79.82
2023-02-11T03:11:57.564Z,79.82
2023-02-11T03:12:58.492Z,79.92
2023-02-11T03:13:57.530Z,79.92
2023-02-11T03:14:57.541Z,79.92
2023-02-11T03:15:57.606Z,80.02
2023-02-11T03:16:57.513Z,80.02
2023-02-11T03:17:57.481Z,80.02
2023-02-11T03:18:58.464Z,80.02
2023-02-11T03:19:57.473Z,80.02
2023-02-11T03:20:57.492Z,80.13
2023-02-11T03:21:57.419Z,80.23
2023-02-11T03:22:57.445Z,80.23
2023-02-11T03:23:58.413Z,80.23
2023-02-11T03:24:57.400Z,80.23
2023-02-11T03:25:57.547Z,80.33
2023-02-11T03:26:57.364Z,80.33
2023-02-11T03:27:57.393Z,80.33
2023-02-11T03:28:57.329Z,80.44
2023-02-11T03:29:58.306Z,80.54
2023-02-11T03:30:57.394Z,80.54
2023-02-11T03:31:57.355Z,80.54
2023-02-11T03:32:57.298Z,80.54
2023-02-11T03:33:57.372Z,80.65
2023-02-11T03:34:57.304Z,80.65
2023-02-11T03:35:58.190Z,80.75
2023-02-11T03:36:57.284Z,80.75
2023-02-11T03:37:57.216Z,80.75
2023-02-11T03:38:57.292Z,80.75
2023-02-11T03:39:57.248Z,80.75
2023-02-11T03:40:58.122Z,80.75
2023-02-11T03:41:57.200Z,80.75
2023-02-11T03:42:57.247Z,80.75
2023-02-11T03:43:57.158Z,80.75
2023-02-11T03:44:57.149Z,80.85
2023-02-11T03:45:58.159Z,80.85
2023-02-11T03:46:57.093Z,80.96
2023-02-11T03:47:57.109Z,81.06
2023-02-11T03:48:57.092Z,81.06
2023-02-11T03:49:57.101Z,81.16
2023-02-11T03:50:58.015Z,81.16
2023-02-11T03:51:57.096Z,81.16
2023-02-11T03:52:57.157Z,81.16
2023-02-11T03:53:57.137Z,81.16
2023-02-11T03:54:57.014Z,81.27
2023-02-11T03:55:57.957Z,81.27
2023-02-11T03:56:56.991Z,81.27
2023-02-11T03:57:56.977Z,81.37
2023-02-11T03:58:56.973Z,81.37
2023-02-11T03:59:56.964Z,81.48
2023-02-11T04:00:57.972Z,81.48
2023-02-11T04:01:56.940Z,81.58
2023-02-11T04:02:56.976Z,81.68
2023-02-11T04:03:56.885Z,81.68
2023-02-11T04:04:56.879Z,81.79
2023-02-11T04:05:57.838Z,81.79
2023-02-11T04:06:56.869Z,81.89
2023-02-11T04:07:56.863Z,81.89
2023-02-11T04:08:56.833Z,81.99
2023-02-11T04:09:56.837Z,81.96
2023-02-11T04:10:56.831Z,81.99
2023-02-11T04:11:57.758Z,81.99
2023-02-11T04:12:56.773Z,82.06
2023-02-11T04:13:56.763Z,82.06
2023-02-11T04:14:56.759Z,82.17
2023-02-11T04:15:56.841Z,82.20
2023-02-11T04:16:56.782Z,82.27
2023-02-11T04:17:57.642Z,82.37
2023-02-11T04:18:56.743Z,82.37
2023-02-11T04:19:56.710Z,82.48
2023-02-11T04:20:56.682Z,82.48
2023-02-11T04:21:56.682Z,82.62
2023-02-11T04:22:57.644Z,82.68
2023-02-11T04:23:56.660Z,82.82
2023-02-11T04:24:56.634Z,82.93
2023-02-11T04:25:56.600Z,83.03
2023-02-11T04:26:56.599Z,83.03
2023-02-11T04:27:57.772Z,83.10
2023-02-11T04:28:56.572Z,83.10
2023-02-11T04:29:56.579Z,83.10
2023-02-11T04:30:56.617Z,83.10
2023-02-11T04:31:56.654Z,83.20
2023-02-11T04:32:56.535Z,83.20
2023-02-11T04:33:57.486Z,83.31
2023-02-11T04:34:56.492Z,83.41
2023-02-11T04:35:56.600Z,83.51
2023-02-11T04:36:56.512Z,83.93
2023-02-11T04:37:56.630Z,84.55
2023-02-11T04:38:56.506Z,84.96
2023-02-11T04:39:57.365Z,85.06
2023-02-11T04:40:56.461Z,84.96
2023-02-11T04:41:56.410Z,85.06
2023-02-11T04:42:56.431Z,85.31
2023-02-11T04:43:56.456Z,85.52
2023-02-11T04:44:57.304Z,85.94
2023-02-11T04:45:56.400Z,85.83
2023-02-11T04:46:56.350Z,85.83
2023-02-11T04:47:56.348Z,85.94
2023-02-11T04:48:56.328Z,85.83
2023-02-11T04:49:56.312Z,85.94
2023-02-11T04:50:57.250Z,85.94
2023-02-11T04:51:56.298Z,85.94
2023-02-11T04:52:56.299Z,86.04
2023-02-11T04:53:56.332Z,85.94
2023-02-11T04:54:56.233Z,85.94
2023-02-11T04:56:02.500Z,85.94
2023-02-11T04:56:56.218Z,85.94
2023-02-11T04:57:56.226Z,85.94
2023-02-11T04:58:56.208Z,85.83
2023-02-11T04:59:56.178Z,85.83
2023-02-11T05:00:56.246Z,85.94
2023-02-11T05:01:57.113Z,85.94
2023-02-11T05:02:56.176Z,85.83
2023-02-11T05:04:55.051Z,85.79
2023-02-11T05:05:55.048Z,85.89
2023-02-11T05:06:58.344Z,85.79
2023-02-11T05:07:55.022Z,85.79
2023-02-11T05:08:54.994Z,85.89
2023-02-11T05:09:54.992Z,86.10
2023-02-11T05:10:55.032Z,86.31
2023-02-11T05:11:55.883Z,86.62
2023-02-11T05:12:56.089Z,86.93
2023-02-11T05:13:54.918Z,87.24
2023-02-11T05:14:54.908Z,87.45
2023-02-11T05:15:54.912Z,87.59
2023-02-11T05:16:55.839Z,87.59
2023-02-11T05:17:54.866Z,87.80
2023-02-11T05:18:54.872Z,88.01
2023-02-11T05:19:54.870Z,87.90
2023-02-11T05:20:54.863Z,87.80
2023-02-11T05:22:02.620Z,87.70
2023-02-11T05:22:57.257Z,87.70
2023-02-11T05:23:54.806Z,87.70
2023-02-11T05:24:54.820Z,87.80
2023-02-11T05:25:54.767Z,87.80
2023-02-11T05:26:54.756Z,87.97
2023-02-11T05:27:54.847Z,87.97
2023-02-11T05:28:55.690Z,87.97
2023-02-11T05:29:54.729Z,87.97
2023-02-11T05:30:54.814Z,88.18
2023-02-11T05:31:54.684Z,88.39
2023-02-11T05:32:54.688Z,88.53
2023-02-11T05:33:55.621Z,88.53
2023-02-11T05:34:54.671Z,88.73
2023-02-11T05:35:54.677Z,88.84
2023-02-11T05:36:54.737Z,88.94
2023-02-11T05:37:54.648Z,89.04
2023-02-11T05:38:55.556Z,89.04
2023-02-11T05:39:54.607Z,89.04
2023-02-11T05:40:54.618Z,89.04
2023-02-11T05:41:54.590Z,89.04
2023-02-11T05:42:54.591Z,89.15
2023-02-11T05:43:55.487Z,89.36
2023-02-11T05:44:54.552Z,89.56
2023-02-11T05:45:54.839Z,89.56
2023-02-11T05:46:54.559Z,89.46
2023-02-11T05:47:54.516Z,89.46
2023-02-11T05:48:55.424Z,89.56
2023-02-11T05:49:54.464Z,89.77
2023-02-11T05:50:54.510Z,89.87
2023-02-11T05:51:54.512Z,89.87
2023-02-11T05:52:54.501Z,90.08
2023-02-11T05:53:54.447Z,90.19
2023-02-11T05:54:55.332Z,90.29
2023-02-11T05:55:54.417Z,90.60
2023-02-11T05:56:54.381Z,90.60
2023-02-11T05:57:54.379Z,90.70
2023-02-11T05:58:54.369Z,90.81
2023-02-11T05:59:54.418Z,90.81
2023-02-11T06:00:55.272Z,90.91
2023-02-11T06:01:54.323Z,90.87
2023-02-11T06:02:54.402Z,91.02
2023-02-11T06:03:54.395Z,91.08
2023-02-11T06:04:54.282Z,91.08
2023-02-11T06:05:54.281Z,91.18
2023-02-11T06:06:55.214Z,91.28
2023-02-11T06:07:54.256Z,91.39
2023-02-11T06:08:54.254Z,91.49
2023-02-11T06:09:54.270Z,91.60
2023-02-11T06:10:54.212Z,91.60
2023-02-11T06:11:54.198Z,91.60
2023-02-11T06:12:55.188Z,91.60
2023-02-11T06:13:54.209Z,91.60
2023-02-11T06:14:54.172Z,91.60
2023-02-11T06:15:54.196Z,91.60
2023-02-11T06:16:54.131Z,91.60
2023-02-11T06:17:54.221Z,91.60
2023-02-11T06:18:55.041Z,91.60
2023-02-11T06:19:54.129Z,91.60
2023-02-11T06:20:54.094Z,91.60
2023-02-11T06:21:54.098Z,91.49
2023-02-11T06:22:54.061Z,91.49
2023-02-11T06:23:55.040Z,91.49
2023-02-11T06:25:01.287Z,91.60
2023-02-11T06:25:55.542Z,91.80
2023-02-11T06:26:54.015Z,91.91
2023-02-11T06:27:54.008Z,92.11
2023-02-11T06:28:53.993Z,92.22
2023-02-11T06:29:54.913Z,92.32
2023-02-11T06:30:54.024Z,92.28
2023-02-11T06:31:54.067Z,92.49
2023-02-11T06:32:54.027Z,92.49
2023-02-11T06:33:53.933Z,92.69
2023-02-11T06:34:53.918Z,92.69
2023-02-11T06:35:54.830Z,92.80
2023-02-11T06:36:53.889Z,92.90
2023-02-11T06:37:53.900Z,93.10
2023-02-11T06:38:53.877Z,93.31
2023-02-11T06:39:53.846Z,93.62
2023-02-11T06:40:54.821Z,93.73
2023-02-11T06:41:53.840Z,93.83
2023-02-11T06:42:53.825Z,94.04
2023-02-11T06:43:53.808Z,94.24
2023-02-11T06:44:53.782Z,94.56
2023-02-11T06:45:53.789Z,94.66
2023-02-11T06:46:54.762Z,94.87
2023-02-11T06:47:53.757Z,94.87
2023-02-11T06:48:53.848Z,95.07
2023-02-11T06:49:53.714Z,95.18
2023-02-11T06:50:53.723Z,95.18
2023-02-11T06:51:54.648Z,95.28
2023-02-11T06:52:53.707Z,95.39
2023-02-11T06:53:53.690Z,95.28
2023-02-11T06:54:53.681Z,95.28
2023-02-11T06:55:53.659Z,95.28
2023-02-11T06:56:53.626Z,95.18
2023-02-11T06:57:54.566Z,95.07
2023-02-11T06:58:53.635Z,95.07
2023-02-11T06:59:53.617Z,94.97
2023-02-11T07:00:53.583Z,94.97
2023-02-11T07:01:53.637Z,94.87
2023-02-11T07:02:54.560Z,94.87
2023-02-11T07:03:53.546Z,94.87
2023-02-11T07:04:53.542Z,94.87
2023-02-11T07:05:53.583Z,94.87
2023-02-11T07:06:53.526Z,94.87
2023-02-11T07:07:53.495Z,94.87
2023-02-11T07:08:54.436Z,94.76
2023-02-11T07:09:53.477Z,94.76
2023-02-11T07:10:53.485Z,94.62
2023-02-11T07:11:53.515Z,94.51
2023-02-11T07:12:53.431Z,94.51
2023-02-11T07:13:54.363Z,94.41
2023-02-11T07:14:53.409Z,94.41
2023-02-11T07:15:53.704Z,94.31
2023-02-11T07:16:53.386Z,94.20
2023-02-11T07:17:53.402Z,94.10
2023-02-11T07:18:54.337Z,94.10
2023-02-11T07:19:53.365Z,93.99
2023-02-11T07:20:53.328Z,93.89
2023-02-11T07:21:53.345Z,93.89
2023-02-11T07:22:53.302Z,93.79
2023-02-11T07:23:54.256Z,93.79
2023-02-11T07:24:53.307Z,93.68
2023-02-11T07:25:53.307Z,93.68
2023-02-11T07:26:53.268Z,93.68
2023-02-11T07:27:53.988Z,93.68
2023-02-11T07:28:53.258Z,93.68
2023-02-11T07:29:54.204Z,93.58
2023-02-11T07:30:53.268Z,93.58
2023-02-11T07:31:53.252Z,93.48
2023-02-11T07:32:53.218Z,93.37
2023-02-11T07:33:53.214Z,93.23
2023-02-11T07:34:53.238Z,93.12
2023-02-11T07:35:54.081Z,93.02
2023-02-11T07:36:53.276Z,92.91
2023-02-11T07:37:53.154Z,92.81
2023-02-11T07:38:53.186Z,92.71
2023-02-11T07:39:53.145Z,92.61
2023-02-11T07:40:53.092Z,92.50
2023-02-11T07:41:54.024Z,92.40
2023-02-11T07:42:53.081Z,92.50
2023-02-11T07:43:53.095Z,92.61
2023-02-11T07:44:53.069Z,92.61
2023-02-11T07:45:53.041Z,92.50
2023-02-11T07:46:53.061Z,92.50
2023-02-11T07:47:53.939Z,92.30
2023-02-11T07:48:53.003Z,92.30
2023-02-11T07:49:56.102Z,92.19
2023-02-11T07:50:52.958Z,92.09
2023-02-11T07:51:52.963Z,92.09
2023-02-11T07:52:52.973Z,91.99
2023-02-11T07:53:53.876Z,91.99
2023-02-11T07:54:52.933Z,91.99
2023-02-11T07:55:53.116Z,91.99
2023-02-11T07:56:52.951Z,91.99
2023-02-11T07:57:52.979Z,91.99
2023-02-11T07:58:52.935Z,92.09
2023-02-11T07:59:53.806Z,91.99
2023-02-11T08:00:52.887Z,91.99
2023-02-11T08:01:52.927Z,91.99
2023-02-11T08:02:52.875Z,91.99
2023-02-11T08:03:52.836Z,91.99
2023-02-11T08:04:53.734Z,91.94
2023-02-11T08:05:53.066Z,91.94
2023-02-11T08:06:52.840Z,92.05
2023-02-11T08:07:52.771Z,92.05
2023-02-11T08:08:52.849Z,92.05
2023-02-11T08:09:53.668Z,92.15
2023-02-11T08:10:52.909Z,92.25
2023-02-11T08:11:52.733Z,92.36
2023-02-11T08:12:52.729Z,92.25
2023-02-11T08:13:52.752Z,92.36
2023-02-11T08:14:53.613Z,92.46
2023-02-11T08:15:52.893Z,92.46
2023-02-11T08:16:52.721Z,92.36
2023-02-11T08:17:52.654Z,92.46
2023-02-11T08:18:52.674Z,92.46
2023-02-11T08:19:52.660Z,92.46
2023-02-11T08:20:53.547Z,92.57
2023-02-11T08:21:52.605Z,92.42
2023-02-11T08:22:52.644Z,92.52
2023-02-11T08:23:52.599Z,92.63
2023-02-11T08:24:52.605Z,92.52
2023-02-11T08:25:53.641Z,92.52
2023-02-11T08:26:52.542Z,92.72
2023-02-11T08:27:52.499Z,92.83
2023-02-11T08:28:52.520Z,92.83
2023-02-11T08:29:52.534Z,93.04
2023-02-11T08:30:53.756Z,93.24
2023-02-11T08:31:52.488Z,93.45
2023-02-11T08:32:52.460Z,93.55
2023-02-11T08:33:52.470Z,93.76
2023-02-11T08:34:52.421Z,93.87
2023-02-11T08:35:53.336Z,94.18
2023-02-11T08:36:52.398Z,94.18
2023-02-11T08:37:52.574Z,94.28
2023-02-11T08:38:52.358Z,94.48
2023-02-11T08:39:52.392Z,94.48
2023-02-11T08:40:52.541Z,94.59
2023-02-11T08:41:53.273Z,94.48
2023-02-11T08:42:52.330Z,94.59
2023-02-11T08:43:52.306Z,94.59
2023-02-11T08:44:52.326Z,94.69
2023-02-11T08:45:52.699Z,94.59
2023-02-11T08:46:52.292Z,94.38
2023-02-11T08:47:53.288Z,94.28
2023-02-11T08:48:52.270Z,94.28
2023-02-11T08:49:52.246Z,94.28
2023-02-11T08:50:52.225Z,94.18
2023-02-11T08:51:52.228Z,94.07
2023-02-11T08:52:53.113Z,94.07
2023-02-11T08:53:52.204Z,94.07
2023-02-11T08:54:52.187Z,94.18
2023-02-11T08:55:52.455Z,94.28
2023-02-11T08:56:52.154Z,94.38
2023-02-11T08:57:53.115Z,94.48
2023-02-11T08:58:52.145Z,94.59
2023-02-11T08:59:52.115Z,94.69
2023-02-11T09:00:52.543Z,94.69
2023-02-11T09:01:52.159Z,94.90
2023-02-11T09:02:52.090Z,94.90
2023-02-11T09:03:52.988Z,95.00
2023-02-11T09:04:52.053Z,95.10
2023-02-11T09:05:52.066Z,95.10
2023-02-11T09:06:52.038Z,95.10
2023-02-11T09:07:52.040Z,95.10
2023-02-11T09:08:52.951Z,95.10
2023-02-11T09:09:52.001Z,95.21
2023-02-11T09:10:52.925Z,95.21
2023-02-11T09:11:51.954Z,95.21
2023-02-11T09:12:51.956Z,95.10
2023-02-11T09:13:54.311Z,94.90
2023-02-11T09:14:52.862Z,94.90
2023-02-11T09:15:51.925Z,94.90
2023-02-11T09:16:52.068Z,94.79
2023-02-11T09:17:51.881Z,94.69
2023-02-11T09:18:51.900Z,94.69
2023-02-11T09:19:52.790Z,94.69
2023-02-11T09:20:52.066Z,94.59
2023-02-11T09:21:51.884Z,94.59
2023-02-11T09:22:51.816Z,94.59
2023-02-11T09:23:51.822Z,94.48
2023-02-11T09:24:52.711Z,94.44
2023-02-11T09:25:52.249Z,94.34
2023-02-11T09:26:51.774Z,94.34
2023-02-11T09:27:51.771Z,94.23
2023-02-11T09:28:51.781Z,94.23
2023-02-11T09:29:51.811Z,94.13
2023-02-11T09:30:52.988Z,94.13
2023-02-11T09:31:51.829Z,94.13
2023-02-11T09:32:51.701Z,94.13
2023-02-11T09:33:51.714Z,94.13
2023-02-11T09:34:51.697Z,94.13
2023-02-11T09:35:51.658Z,94.23
2023-02-11T09:36:52.588Z,94.23
2023-02-11T09:37:51.664Z,94.13
2023-02-11T09:38:51.634Z,94.13
2023-02-11T09:39:51.603Z,94.13
2023-02-11T09:40:51.858Z,94.03
2023-02-11T09:41:51.589Z,94.03
2023-02-11T09:42:52.517Z,94.03
2023-02-11T09:43:52.507Z,94.03
2023-02-11T09:44:51.561Z,94.03
2023-02-11T09:45:51.594Z,93.93
2023-02-11T09:46:51.520Z,93.82
2023-02-11T09:47:51.497Z,93.82
2023-02-11T09:48:52.450Z,93.78
2023-02-11T09:49:51.489Z,93.78
2023-02-11T09:50:51.784Z,93.68
2023-02-11T09:51:51.473Z,93.57
2023-02-11T09:52:51.460Z,93.57
2023-02-11T09:53:52.430Z,93.57
2023-02-11T09:54:51.431Z,93.57
2023-02-11T09:55:51.405Z,93.57
2023-02-11T09:56:51.413Z,93.47
2023-02-11T09:57:51.381Z,93.57
2023-02-11T09:58:52.288Z,93.68
2023-02-11T09:59:51.361Z,93.78
2023-02-11T10:00:51.607Z,93.98
2023-02-11T10:01:51.378Z,94.19
2023-02-11T10:02:51.401Z,94.29
2023-02-11T10:03:52.325Z,94.50
2023-02-11T10:04:51.337Z,94.81
2023-02-11T10:05:51.345Z,94.92
2023-02-11T10:06:51.260Z,95.02
2023-02-11T10:07:51.260Z,95.02
2023-02-11T10:08:51.254Z,95.12
2023-02-11T10:09:52.170Z,95.22
2023-02-11T10:10:51.525Z,95.32
2023-02-11T10:11:51.216Z,95.43
2023-02-11T10:12:51.196Z,95.64
2023-02-11T10:13:51.198Z,95.74
2023-02-11T10:14:51.161Z,95.84
2023-02-11T10:15:52.150Z,96.15
2023-02-11T10:16:51.155Z,96.26
2023-02-11T10:17:51.140Z,96.56
2023-02-11T10:18:51.136Z,96.77
2023-02-11T10:19:51.126Z,96.98
2023-02-11T10:20:52.304Z,97.39
2023-02-11T10:21:51.105Z,97.50
2023-02-11T10:22:51.094Z,97.60
2023-02-11T10:23:51.093Z,97.81
2023-02-11T10:24:51.048Z,98.01
2023-02-11T10:25:51.972Z,98.11
2023-02-11T10:26:51.032Z,98.11
2023-02-11T10:27:51.012Z,98.22
2023-02-11T10:28:50.997Z,98.43
2023-02-11T10:29:50.978Z,98.43
2023-02-11T10:30:52.382Z,98.53
2023-02-11T10:31:51.005Z,98.53
2023-02-11T10:32:50.961Z,98.74
2023-02-11T10:33:50.921Z,98.94
2023-02-11T10:34:50.921Z,98.94
2023-02-11T10:35:51.840Z,99.05
2023-02-11T10:36:50.912Z,99.09
2023-02-11T10:37:50.909Z,99.25
2023-02-11T10:38:50.860Z,99.35
2023-02-11T10:39:50.851Z,99.25
2023-02-11T10:40:51.053Z,99.15
2023-02-11T10:41:51.774Z,99.25
2023-02-11T10:42:52.973Z,99.25
2023-02-11T10:43:50.803Z,99.25
2023-02-11T10:44:50.807Z,99.25
2023-02-11T10:45:50.798Z,99.35
2023-02-11T10:46:50.779Z,99.46
2023-02-11T10:47:51.710Z,99.56
2023-02-11T10:48:50.766Z,99.77
2023-02-11T10:49:50.760Z,99.77
2023-02-11T10:50:51.037Z,99.77
2023-02-11T10:51:50.710Z,99.87
2023-02-11T10:52:50.720Z,99.98
2023-02-11T10:53:51.653Z,99.98
2023-02-11T10:54:50.669Z,99.99
2023-02-11T10:55:50.649Z,99.99
2023-02-11T10:56:50.663Z,99.99
2023-02-11T10:57:50.639Z,99.99
2023-02-11T10:58:51.570Z,99.99
2023-02-11T10:59:50.628Z,99.99
2023-02-11T11:00:50.836Z,99.99
2023-02-11T11:01:50.689Z,99.99
2023-02-11T11:02:50.565Z,99.99
2023-02-11T11:03:51.527Z,99.99
2023-02-11T11:05:52.552Z,99.99
2023-02-11T11:06:49.489Z,99.99
2023-02-11T11:07:49.780Z,99.99
2023-02-11T11:08:50.441Z,99.99
2023-02-11T11:09:50.337Z,99.99
2023-02-11T11:10:49.796Z,99.99
2023-02-11T11:11:49.621Z,99.99
2023-02-11T11:12:49.415Z,99.99
2023-02-11T11:13:50.274Z,99.99
2023-02-11T11:14:49.343Z,99.99
2023-02-11T11:15:49.519Z,99.99
2023-02-11T11:16:49.454Z,99.99
2023-02-11T11:17:49.423Z,99.99
2023-02-11T11:18:52.092Z,99.99
2023-02-11T11:19:49.278Z,99.99
2023-02-11T11:20:49.633Z,99.99
2023-02-11T11:21:49.328Z,99.99
2023-02-11T11:22:49.304Z,99.99
2023-02-11T11:23:50.684Z,99.99
2023-02-11T11:24:50.178Z,99.99
2023-02-11T11:25:49.744Z,99.99
2023-02-11T11:26:49.636Z,99.99
2023-02-11T11:27:49.250Z,99.99
2023-02-11T11:28:49.330Z,99.99
2023-02-11T11:29:50.198Z,99.99
2023-02-11T11:30:49.649Z,99.99
2023-02-11T11:31:49.206Z,99.99
2023-02-11T11:32:49.113Z,99.99
2023-02-11T11:33:50.302Z,99.99
2023-02-11T11:34:50.149Z,99.99
2023-02-11T11:35:49.903Z,99.99
2023-02-11T11:36:49.292Z,99.99
2023-02-11T11:37:49.287Z,99.99
2023-02-11T11:38:49.186Z,99.99
2023-02-11T11:39:49.233Z,99.99
2023-02-11T11:40:50.506Z,99.99
2023-02-11T11:41:49.110Z,99.99
2023-02-11T11:42:48.997Z,99.99
2023-02-11T11:43:49.019Z,99.99
2023-02-11T11:44:49.768Z,99.99
2023-02-11T11:45:50.461Z,99.99
2023-02-11T11:46:48.954Z,99.99
2023-02-11T11:47:48.984Z,99.99
2023-02-11T11:48:49.080Z,99.99
2023-02-11T11:49:48.924Z,99.99
2023-02-11T11:50:50.301Z,99.99
2023-02-11T11:51:48.995Z,99.99
2023-02-11T11:52:49.934Z,99.99
2023-02-11T11:53:48.893Z,99.99
2023-02-11T11:54:48.856Z,99.99
2023-02-11T11:55:50.588Z,99.99
2023-02-11T11:56:49.310Z,99.99
2023-02-11T11:57:48.826Z,99.99
2023-02-11T11:58:48.911Z,99.99
2023-02-11T11:59:48.838Z,99.99
2023-02-11T12:00:49.165Z,99.99
2023-02-11T12:01:55.407Z,99.99
2023-02-11T12:02:48.875Z,99.99
2023-02-11T12:03:48.953Z,99.99
2023-02-11T12:04:48.701Z,99.99
2023-02-11T12:05:48.759Z,99.99
2023-02-11T12:06:49.638Z,99.99
2023-02-11T12:07:48.664Z,99.99
2023-02-11T12:08:48.662Z,99.99
2023-02-11T12:09:48.788Z,99.99
2023-02-11T12:10:48.858Z,99.99
2023-02-11T12:11:48.706Z,99.99
2023-02-11T12:12:49.550Z,99.99
2023-02-11T12:13:48.739Z,99.99
2023-02-11T12:14:48.948Z,99.99
2023-02-11T12:15:48.645Z,99.99
2023-02-11T12:16:48.722Z,99.99
2023-02-11T12:17:49.556Z,99.99
2023-02-11T12:18:48.575Z,99.99
2023-02-11T12:19:48.755Z,99.99
2023-02-11T12:20:48.839Z,99.99
2023-02-11T12:21:48.484Z,99.99
2023-02-11T12:22:49.445Z,99.99
2023-02-11T12:23:48.493Z,99.99
2023-02-11T12:24:48.425Z,99.99
2023-02-11T12:25:48.453Z,99.99
2023-02-11T12:26:48.439Z,99.99
2023-02-11T12:27:48.419Z,99.99
2023-02-11T12:28:49.449Z,99.99
2023-02-11T12:29:48.425Z,99.99
2023-02-11T12:30:48.666Z,99.99
2023-02-11T12:31:48.398Z,99.99
2023-02-11T12:32:48.361Z,99.99
2023-02-11T12:33:48.340Z,99.99
2023-02-11T12:34:49.290Z,99.99
2023-02-11T12:35:48.310Z,99.99
2023-02-11T12:36:48.321Z,99.99
2023-02-11T12:37:48.381Z,99.99
2023-02-11T12:38:48.272Z,99.99
2023-02-11T12:39:48.310Z,99.99
2023-02-11T12:40:49.569Z,99.99
2023-02-11T12:41:48.275Z,99.99
2023-02-11T12:42:48.306Z,99.99
2023-02-11T12:43:48.516Z,99.99
2023-02-11T12:44:48.264Z,99.99
2023-02-11T12:45:49.284Z,99.99
2023-02-11T12:46:48.142Z,99.84
2023-02-11T12:47:48.790Z,99.84
2023-02-11T12:48:48.163Z,99.84
2023-02-11T12:49:48.135Z,99.99
2023-02-11T12:50:48.291Z,99.99
2023-02-11T12:51:49.016Z,99.99
2023-02-11T12:52:48.174Z,99.99
2023-02-11T12:53:48.120Z,99.99